Lumberton Municipal Airport
KLBT : now visible

Airfield :











YOU CAN JOIN US ON...

 
LOGIN :

Register | Disclaimer

   EN    FR    IT 

 









Legend :    VFR   Marginal VFR   IFR   Intensive IFR   Very Intensive IFR
Visi :
Ceiling :
>= 8 km
>= 3000ft
5 to 8 km
1000 to 3000 ft
1500m to 5 km
500 to 1000 ft
800 to 1500m
200 to 500 ft
< 800m
< 200 ft
Symbols :   Thunderstorms  Fog  Heavy snow  Heavy precipitations  Wind > 20 kt






- Airport Elevation : 126 ft


KLBT - Lumberton Municipal

CURRENT METAR :
  • 040556Z AUTO 07004KT 10SM FEW060 SCT070 BKN090 25/22 A3007 RMK AO2 SLP182 T02500222 10300 20250 51002 TSNO

EXPIRED METARs :
  • 040456Z AUTO 16004KT 10SM FEW060 OVC095 25/23 A3007 RMK AO2 SLP182 T02500228 403610233 TSNO

TAF KLBT
Valid from the 04 at 06:00 until the 05 at 06:00 UTC


040538Z 0406/0506 00000KT P6SM BKN080
FM041000 00000KT 5SM BR BKN015
FM041200 00000KT P6SM BKN020
FM041400 08005KT P6SM SCT025
FM041800 10007KT P6SM VCTS BKN035CB
FM050000 14004KT P6SM BKN050 AMD NOT SKED
KZDC FIR / North America



MET'MAP, your aeronautical weather chart ! - Copyright ORBIFLY December 2007 - Disclaimer

ORBIFLY MET'MAP TEAM :

Programming & Development : Alexandra Zaïnal
Original concept : Baudouin d'Aumeries
Technical & hardware support : Manuel Goepfert
Assistance : Marc-Olivier Méhu




SOURCES & CREDITS :

   NOAA       Earth
Advisory